CheckWX is a tool to help pilots better visualize weather data.  It is not intended as a substitute for an official pre-flight weather briefing.

16:38:11 UTC

KBTP METAR
Pittsburgh / Butler Regional Airport
Butler, Pennsylvania, USA
Current

42 mins ago

KBTP 191556Z AUTO 24004KT 5SM BR BKN029 OVC036 03/02 A2983 RMK AO2 SLP120 T00330022
Observed
Nov-19 @ 15:56 UTC
Wind
  • 240° at 4 KTS
Visibility
5 SM
Flight Rules
MVFR
Conditions
Mist
Cloud Levels
  • Broken at 2,900' AGL
  • Overcast at 3,600' AGL
Temperature
C / 37°F
Dewpoint
C / 36°F
Humidity
93%
Altimeter
29.83" Hg
Pressure
1010.12 hPa
Previous

2 hours ago

KBTP 191456Z AUTO 17003KT 6SM BR BKN034 OVC055 02/02 A2981 RMK AO2 SLP113 T00170017 51012 FZRANO
Observed
Nov-19 @ 14:56 UTC
Wind
  • 170° at 3 KTS
Visibility
6 SM
Flight Rules
VFR
Conditions
Mist
Cloud Levels
  • Broken at 3,400' AGL
  • Overcast at 5,500' AGL
Temperature
C / 36°F
Dewpoint
C / 36°F
Humidity
100%
Altimeter
29.81" Hg
Pressure
1009.52 hPa
Previous

3 hours ago

KBTP 191356Z AUTO 00000KT 6SM BR OVC033 00/M01 A2981 RMK AO2 SLP111 T00001006 FZRANO
Observed
Nov-19 @ 13:56 UTC
Visibility
6 SM
Flight Rules
VFR
Conditions
Mist
Cloud Levels
  • Overcast at 3,300' AGL
Temperature
C / 32°F
Dewpoint
-1°C / 30°F
Humidity
93%
Altimeter
29.81" Hg
Pressure
1009.52 hPa